createdAt,value
2022-12-29T00:00:04.375Z,99.40
2022-12-29T00:02:40.041Z,99.80
2022-12-29T00:05:08.104Z,99.50
2022-12-29T00:07:35.424Z,99.40
2022-12-29T00:10:02.798Z,99.30
2022-12-29T00:12:50.135Z,99.30
2022-12-29T00:15:36.026Z,99.30
2022-12-29T00:18:03.577Z,99.30
2022-12-29T00:20:49.325Z,99.30
2022-12-29T00:23:35.205Z,99.30
2022-12-29T00:26:23.482Z,99.10
2022-12-29T00:29:09.950Z,99.00
2022-12-29T00:31:55.740Z,98.90
2022-12-29T00:34:41.448Z,98.80
2022-12-29T00:37:08.788Z,98.70
2022-12-29T00:39:54.620Z,98.50
2022-12-29T00:42:40.257Z,98.40
2022-12-29T00:45:07.825Z,98.40
2022-12-29T00:47:35.131Z,98.50
2022-12-29T00:50:02.402Z,98.30
2022-12-29T00:52:29.723Z,98.20
2022-12-29T00:54:57.159Z,98.20
2022-12-29T00:57:24.491Z,98.00
2022-12-29T00:59:51.785Z,98.00
2022-12-29T01:02:19.612Z,97.80
2022-12-29T01:04:47.939Z,97.70
2022-12-29T01:07:17.114Z,97.50
2022-12-29T01:10:04.407Z,97.50
2022-12-29T01:12:51.282Z,97.50
2022-12-29T01:15:18.680Z,97.70
2022-12-29T01:17:46.001Z,97.90
2022-12-29T01:20:13.428Z,97.80
2022-12-29T01:22:43.403Z,97.70
2022-12-29T01:25:10.753Z,97.70
2022-12-29T01:27:39.369Z,97.70
2022-12-29T01:30:07.337Z,97.50
2022-12-29T01:32:34.793Z,97.60
2022-12-29T01:35:02.233Z,97.10
2022-12-29T01:37:29.624Z,97.50
2022-12-29T01:39:57.524Z,97.10
2022-12-29T01:42:26.481Z,97.10
2022-12-29T01:44:58.899Z,97.00
2022-12-29T01:47:47.327Z,97.00
2022-12-29T01:50:23.531Z,96.80
2022-12-29T01:53:02.867Z,96.70
2022-12-29T01:55:32.307Z,96.80
2022-12-29T01:58:01.027Z,96.60
2022-12-29T02:00:28.372Z,96.40
2022-12-29T02:02:55.781Z,96.50
2022-12-29T02:05:47.278Z,96.40
2022-12-29T02:08:14.652Z,96.50
2022-12-29T02:10:41.957Z,96.20
2022-12-29T02:13:09.334Z,96.30
2022-12-29T02:15:46.927Z,96.20
2022-12-29T02:18:20.691Z,96.40
2022-12-29T02:21:02.989Z,96.20
2022-12-29T02:24:10.039Z,96.30
2022-12-29T02:27:06.162Z,96.30
2022-12-29T02:29:56.649Z,96.10
2022-12-29T02:32:35.952Z,96.10
2022-12-29T02:35:48.578Z,96.20
2022-12-29T02:38:42.200Z,95.90
2022-12-29T02:41:34.424Z,95.80
2022-12-29T02:44:23.572Z,95.50
2022-12-29T02:47:03.410Z,95.40
2022-12-29T02:49:41.233Z,95.40
2022-12-29T02:52:21.032Z,94.90
2022-12-29T02:54:50.203Z,95.00
2022-12-29T02:57:23.618Z,94.90
2022-12-29T02:59:59.412Z,94.80
2022-12-29T03:02:51.913Z,95.10
2022-12-29T03:05:22.427Z,94.90
2022-12-29T03:08:03.081Z,94.50
2022-12-29T03:10:47.309Z,94.50
2022-12-29T03:13:48.467Z,94.50
2022-12-29T03:16:36.594Z,94.40
2022-12-29T03:19:11.184Z,94.10
2022-12-29T03:22:03.483Z,94.00
2022-12-29T03:24:38.144Z,94.00
2022-12-29T03:27:07.429Z,93.60
2022-12-29T03:29:46.440Z,93.30
2022-12-29T03:32:14.618Z,93.10
2022-12-29T03:34:42.025Z,92.90
2022-12-29T03:37:14.193Z,92.50
2022-12-29T03:39:41.760Z,92.40
2022-12-29T03:42:12.728Z,92.30
2022-12-29T03:44:41.955Z,91.90
2022-12-29T03:47:11.698Z,91.70
2022-12-29T03:49:39.265Z,91.90
2022-12-29T03:52:06.750Z,91.60
2022-12-29T03:54:39.006Z,91.50
2022-12-29T03:57:07.053Z,91.50
2022-12-29T03:59:45.487Z,91.30
2022-12-29T04:02:13.182Z,91.10
2022-12-29T04:04:41.733Z,91.10
2022-12-29T04:07:09.126Z,91.00
2022-12-29T04:09:36.537Z,90.80
2022-12-29T04:12:04.318Z,90.90
2022-12-29T04:14:31.700Z,90.70
2022-12-29T04:16:59.073Z,90.60
2022-12-29T04:19:26.432Z,90.90
2022-12-29T04:21:53.838Z,90.80
2022-12-29T04:24:21.778Z,90.80
2022-12-29T04:26:51.143Z,90.80
2022-12-29T04:29:47.374Z,91.10
2022-12-29T04:32:33.392Z,90.70
2022-12-29T04:35:01.213Z,90.20
2022-12-29T04:37:29.127Z,90.40
2022-12-29T04:39:57.768Z,90.50
2022-12-29T04:42:25.130Z,90.60
2022-12-29T04:44:53.187Z,90.60
2022-12-29T04:47:52.106Z,90.40
2022-12-29T04:50:37.855Z,90.20
2022-12-29T04:53:14.633Z,90.40
2022-12-29T04:55:43.557Z,90.10
2022-12-29T04:58:10.902Z,89.90
2022-12-29T05:00:38.415Z,90.00
2022-12-29T05:03:06.274Z,90.00
2022-12-29T05:05:33.843Z,89.50
2022-12-29T05:08:02.214Z,89.20
2022-12-29T05:10:29.555Z,88.90
2022-12-29T05:13:00.949Z,88.90
2022-12-29T05:15:28.958Z,88.70
2022-12-29T05:17:56.319Z,88.80
2022-12-29T05:20:23.720Z,88.60
2022-12-29T05:22:51.413Z,88.50
2022-12-29T05:25:18.715Z,88.30
2022-12-29T05:28:04.100Z,89.80
2022-12-29T05:30:44.986Z,89.10
2022-12-29T05:33:12.844Z,89.20
2022-12-29T05:35:41.070Z,89.00
2022-12-29T05:38:08.600Z,89.30
2022-12-29T05:40:35.906Z,88.60
2022-12-29T05:43:07.576Z,87.90
2022-12-29T05:45:55.250Z,88.60
2022-12-29T05:48:40.981Z,88.30
2022-12-29T05:51:37.471Z,88.20
2022-12-29T05:54:04.938Z,88.80
2022-12-29T05:56:32.418Z,88.70
2022-12-29T05:59:02.129Z,89.30
2022-12-29T06:01:29.501Z,89.00
2022-12-29T06:03:58.236Z,89.20
2022-12-29T06:06:26.059Z,88.50
2022-12-29T06:08:53.721Z,89.40
2022-12-29T06:11:21.901Z,88.90
2022-12-29T06:13:59.911Z,89.50
2022-12-29T06:16:27.361Z,90.20
2022-12-29T06:18:58.437Z,90.00
2022-12-29T06:21:25.795Z,90.10
2022-12-29T06:23:53.091Z,90.10
2022-12-29T06:26:21.495Z,90.00
2022-12-29T06:28:49.646Z,90.10
2022-12-29T06:31:17.627Z,90.00
2022-12-29T06:33:49.655Z,90.10
2022-12-29T06:36:17.659Z,90.00
2022-12-29T06:38:45.298Z,89.80
2022-12-29T06:41:13.216Z,89.40
2022-12-29T06:43:59.335Z,90.10
2022-12-29T06:46:45.112Z,90.20
2022-12-29T06:49:12.388Z,90.10
2022-12-29T06:51:39.656Z,89.80
2022-12-29T06:54:06.977Z,89.70
2022-12-29T06:56:34.307Z,89.60
2022-12-29T06:59:02.131Z,90.10
2022-12-29T07:01:29.577Z,89.90
2022-12-29T07:03:57.102Z,90.00
2022-12-29T07:06:24.407Z,90.20
2022-12-29T07:08:51.743Z,90.10
2022-12-29T07:11:19.031Z,90.00
2022-12-29T07:13:46.304Z,90.40
2022-12-29T07:16:13.726Z,90.30
2022-12-29T07:18:41.043Z,89.70
2022-12-29T07:21:08.458Z,90.20
2022-12-29T07:23:35.803Z,90.30
2022-12-29T07:26:04.139Z,90.00
2022-12-29T07:28:31.543Z,90.20
2022-12-29T07:30:59.448Z,90.50
2022-12-29T07:33:28.891Z,90.40
2022-12-29T07:35:56.290Z,90.60
2022-12-29T07:38:23.714Z,90.20
2022-12-29T07:40:51.020Z,90.20
2022-12-29T07:43:18.312Z,90.70
2022-12-29T07:46:00.095Z,90.40
2022-12-29T07:48:29.428Z,90.80
2022-12-29T07:50:56.741Z,90.70
2022-12-29T07:53:24.044Z,90.60
2022-12-29T07:55:51.328Z,90.60
2022-12-29T07:58:19.659Z,90.40
2022-12-29T08:00:46.938Z,90.50
2022-12-29T08:03:14.300Z,90.40
2022-12-29T08:05:41.587Z,90.30
2022-12-29T08:08:08.953Z,90.00
2022-12-29T08:10:36.279Z,89.70
2022-12-29T08:13:03.645Z,89.60
2022-12-29T08:15:32.670Z,89.50
2022-12-29T08:18:00.247Z,88.20
2022-12-29T08:20:27.567Z,88.40
2022-12-29T08:22:54.883Z,88.40
2022-12-29T08:25:22.228Z,88.10
2022-12-29T08:27:49.496Z,88.00
2022-12-29T08:30:17.446Z,87.50
2022-12-29T08:32:44.791Z,88.60
2022-12-29T08:35:13.699Z,88.10
2022-12-29T08:37:40.992Z,88.00
2022-12-29T08:40:09.031Z,87.90
2022-12-29T08:42:36.345Z,88.40
2022-12-29T08:45:03.914Z,87.80
2022-12-29T08:47:31.282Z,87.70
2022-12-29T08:49:58.573Z,86.50
2022-12-29T08:52:25.911Z,86.40
2022-12-29T08:54:53.210Z,86.30
2022-12-29T08:57:21.463Z,84.60
2022-12-29T09:00:06.124Z,83.90
2022-12-29T09:02:33.627Z,83.70
2022-12-29T09:05:02.025Z,83.40
2022-12-29T09:07:29.509Z,82.50
2022-12-29T09:09:56.817Z,82.70
2022-12-29T09:12:24.175Z,83.00
2022-12-29T09:14:51.469Z,82.30
2022-12-29T09:17:37.626Z,81.40
2022-12-29T09:20:05.531Z,80.50
2022-12-29T09:22:32.872Z,80.20
2022-12-29T09:25:00.187Z,78.50
2022-12-29T09:27:27.476Z,78.60
2022-12-29T09:29:54.843Z,77.80
2022-12-29T09:32:23.638Z,76.50
2022-12-29T09:34:51.734Z,76.50
2022-12-29T09:37:19.028Z,75.90
2022-12-29T09:39:52.154Z,75.20
2022-12-29T09:42:40.327Z,74.50
2022-12-29T09:45:24.445Z,73.60
2022-12-29T09:47:51.798Z,72.50
2022-12-29T09:50:29.876Z,72.30
2022-12-29T09:53:03.182Z,72.30
2022-12-29T09:55:39.215Z,72.50
2022-12-29T09:58:26.177Z,71.80
2022-12-29T10:01:22.630Z,72.30
2022-12-29T10:03:51.625Z,71.80
2022-12-29T10:06:32.676Z,71.20
2022-12-29T10:09:02.867Z,71.40
2022-12-29T10:11:37.668Z,70.90
2022-12-29T10:14:21.428Z,71.40
2022-12-29T10:17:16.196Z,71.40
2022-12-29T10:20:12.033Z,70.00
2022-12-29T10:23:04.367Z,69.50
2022-12-29T10:25:33.918Z,68.20
2022-12-29T10:28:02.660Z,68.10
2022-12-29T10:30:29.965Z,68.90
2022-12-29T10:32:59.504Z,69.10
2022-12-29T10:35:31.640Z,68.20
2022-12-29T10:38:14.214Z,67.80
2022-12-29T10:41:03.983Z,68.10
2022-12-29T10:43:38.400Z,67.60
2022-12-29T10:46:12.708Z,66.90
2022-12-29T10:48:40.347Z,66.90
2022-12-29T10:51:09.391Z,66.00
2022-12-29T10:53:44.696Z,66.00
2022-12-29T10:56:26.804Z,66.30
2022-12-29T10:58:54.142Z,65.80
2022-12-29T11:01:21.579Z,66.10
2022-12-29T11:04:20.778Z,66.80
2022-12-29T11:06:48.112Z,66.10
2022-12-29T11:09:17.570Z,66.30
2022-12-29T11:11:44.872Z,67.10
2022-12-29T11:14:20.480Z,65.90
2022-12-29T11:17:01.137Z,65.80
2022-12-29T11:19:37.479Z,65.60
2022-12-29T11:22:15.985Z,64.50
2022-12-29T11:24:47.202Z,64.70
2022-12-29T11:27:23.827Z,63.30
2022-12-29T11:29:52.071Z,64.10
2022-12-29T11:32:26.242Z,63.60
2022-12-29T11:34:56.798Z,63.70
2022-12-29T11:37:32.648Z,62.90
2022-12-29T11:40:00.718Z,63.00
2022-12-29T11:42:36.796Z,63.40
2022-12-29T11:45:26.607Z,62.30
2022-12-29T11:47:59.389Z,62.10
2022-12-29T11:50:30.954Z,61.50
2022-12-29T11:53:05.106Z,61.40
2022-12-29T11:55:32.532Z,59.20
2022-12-29T11:58:02.425Z,59.70
2022-12-29T12:00:31.725Z,59.10
2022-12-29T12:03:13.088Z,58.70
2022-12-29T12:05:57.711Z,57.70
2022-12-29T12:08:40.076Z,57.70
2022-12-29T12:11:14.294Z,57.90
2022-12-29T12:13:56.838Z,56.90
2022-12-29T12:17:02.263Z,57.50
2022-12-29T12:20:25.664Z,57.40
2022-12-29T12:22:59.889Z,57.20
2022-12-29T12:25:32.171Z,57.10
2022-12-29T12:28:18.622Z,56.50
2022-12-29T12:30:51.055Z,57.20
2022-12-29T12:33:30.408Z,57.60
2022-12-29T12:36:29.905Z,57.50
2022-12-29T12:39:19.027Z,58.00
2022-12-29T12:42:12.533Z,58.50
2022-12-29T12:44:58.635Z,59.20
2022-12-29T12:47:40.967Z,58.90
2022-12-29T12:50:19.499Z,59.20
2022-12-29T12:52:49.876Z,58.60
2022-12-29T12:55:58.812Z,59.30
2022-12-29T12:58:30.465Z,59.70
2022-12-29T13:01:16.580Z,60.70
2022-12-29T13:04:05.700Z,60.90
2022-12-29T13:06:43.048Z,61.00
2022-12-29T13:09:10.413Z,61.50
2022-12-29T13:11:56.158Z,62.00
2022-12-29T13:14:33.888Z,62.70
2022-12-29T13:17:31.554Z,62.90
2022-12-29T13:20:21.465Z,62.70
2022-12-29T13:23:02.878Z,63.30
2022-12-29T13:25:52.392Z,63.40
2022-12-29T13:28:53.162Z,63.90
2022-12-29T13:31:30.927Z,64.60
2022-12-29T13:34:06.790Z,64.30
2022-12-29T13:36:45.368Z,65.00
2022-12-29T13:39:29.849Z,65.30
2022-12-29T13:41:57.710Z,65.60
2022-12-29T13:44:41.779Z,66.70
2022-12-29T13:47:35.668Z,66.90
2022-12-29T13:50:04.540Z,67.10
2022-12-29T13:52:35.055Z,68.00
2022-12-29T13:55:14.320Z,68.40
2022-12-29T13:58:19.492Z,68.10
2022-12-29T14:00:57.899Z,68.30
2022-12-29T14:03:48.964Z,68.90
2022-12-29T14:06:26.921Z,69.00
2022-12-29T14:08:59.066Z,69.60
2022-12-29T14:11:36.856Z,70.10
2022-12-29T14:14:13.465Z,70.30
2022-12-29T14:16:42.100Z,70.40
2022-12-29T14:19:18.401Z,71.40
2022-12-29T14:22:01.438Z,71.70
2022-12-29T14:24:37.703Z,71.80
2022-12-29T14:27:11.110Z,71.80
2022-12-29T14:29:41.539Z,72.40
2022-12-29T14:32:27.305Z,73.00
2022-12-29T14:35:02.063Z,73.30
2022-12-29T14:37:36.727Z,73.80
2022-12-29T14:40:27.279Z,74.10
2022-12-29T14:42:55.612Z,74.20
2022-12-29T14:45:30.058Z,74.60
2022-12-29T14:47:57.307Z,75.10
2022-12-29T14:50:26.595Z,75.40
2022-12-29T14:53:02.604Z,75.60
2022-12-29T14:55:43.929Z,75.70
2022-12-29T14:58:20.138Z,74.00
2022-12-29T15:00:47.675Z,72.80
2022-12-29T15:03:19.349Z,71.20
2022-12-29T15:05:56.492Z,70.80
2022-12-29T15:08:25.807Z,70.50
2022-12-29T15:10:56.685Z,70.70
2022-12-29T15:13:26.580Z,70.20
2022-12-29T15:15:54.019Z,69.30
2022-12-29T15:18:24.888Z,69.90
2022-12-29T15:20:54.490Z,69.50
2022-12-29T15:23:21.802Z,69.50
2022-12-29T15:25:56.111Z,69.50
2022-12-29T15:28:23.623Z,69.10
2022-12-29T15:31:02.908Z,70.60
2022-12-29T15:33:30.364Z,70.00
2022-12-29T15:35:58.556Z,70.00
2022-12-29T15:38:34.654Z,70.00
2022-12-29T15:41:30.265Z,70.00
2022-12-29T15:44:15.525Z,70.30
2022-12-29T15:46:42.919Z,70.40
2022-12-29T15:49:10.329Z,71.00
2022-12-29T15:51:39.379Z,71.70
2022-12-29T15:54:07.303Z,71.60
2022-12-29T15:56:34.692Z,71.60
2022-12-29T15:59:02.814Z,71.60
2022-12-29T16:01:35.159Z,72.00
2022-12-29T16:04:05.769Z,73.10
2022-12-29T16:06:33.177Z,71.30
2022-12-29T16:09:17.407Z,71.10
2022-12-29T16:11:49.066Z,71.60
2022-12-29T16:14:18.688Z,71.70
2022-12-29T16:16:46.230Z,71.50
2022-12-29T16:19:25.770Z,72.00
2022-12-29T16:21:53.085Z,72.10
2022-12-29T16:24:22.472Z,72.50
2022-12-29T16:26:52.473Z,72.40
2022-12-29T16:29:21.131Z,72.80
2022-12-29T16:32:03.809Z,73.50
2022-12-29T16:34:34.709Z,74.10
2022-12-29T16:37:03.898Z,74.70
2022-12-29T16:39:40.222Z,75.40
2022-12-29T16:42:45.607Z,76.20
2022-12-29T16:45:24.882Z,77.00
2022-12-29T16:48:11.494Z,77.90
2022-12-29T16:50:39.920Z,78.10
2022-12-29T16:53:07.248Z,78.30
2022-12-29T16:55:34.580Z,79.20
2022-12-29T16:58:01.888Z,79.00
2022-12-29T17:00:32.951Z,79.20
2022-12-29T17:03:00.535Z,79.90
2022-12-29T17:05:28.042Z,80.00
2022-12-29T17:07:55.968Z,81.10
2022-12-29T17:10:43.221Z,81.30
2022-12-29T17:13:11.232Z,81.90
2022-12-29T17:15:38.750Z,82.20
2022-12-29T17:18:13.431Z,82.60
2022-12-29T17:20:42.180Z,82.90
2022-12-29T17:23:17.501Z,83.80
2022-12-29T17:25:47.147Z,84.40
2022-12-29T17:28:21.567Z,84.70
2022-12-29T17:30:49.555Z,85.30
2022-12-29T17:33:20.339Z,85.50
2022-12-29T17:35:53.246Z,86.00
2022-12-29T17:38:30.044Z,86.60
2022-12-29T17:40:58.140Z,87.30
2022-12-29T17:43:25.724Z,87.40
2022-12-29T17:45:54.865Z,87.50
2022-12-29T17:48:22.616Z,87.60
2022-12-29T17:50:51.244Z,87.90
2022-12-29T17:53:27.174Z,88.00
2022-12-29T17:55:54.556Z,88.40
2022-12-29T17:58:26.074Z,88.40
2022-12-29T18:00:55.825Z,88.50
2022-12-29T18:03:31.378Z,89.20
2022-12-29T18:05:58.835Z,90.00
2022-12-29T18:08:28.528Z,90.10
2022-12-29T18:10:55.870Z,90.30
2022-12-29T18:13:41.594Z,90.20
2022-12-29T18:16:13.721Z,90.30
2022-12-29T18:18:41.116Z,89.90
2022-12-29T18:21:16.848Z,90.00
2022-12-29T18:23:44.449Z,89.50
2022-12-29T18:26:25.462Z,89.50
2022-12-29T18:28:58.585Z,89.50
2022-12-29T18:31:29.503Z,89.10
2022-12-29T18:33:57.764Z,88.10
2022-12-29T18:36:25.565Z,88.00
2022-12-29T18:38:54.611Z,87.80
2022-12-29T18:41:31.024Z,87.20
2022-12-29T18:43:58.833Z,87.20
2022-12-29T18:46:26.289Z,86.70
2022-12-29T18:48:53.980Z,85.60
2022-12-29T18:51:24.646Z,84.80
2022-12-29T18:53:54.088Z,84.30
2022-12-29T18:56:22.640Z,83.80
2022-12-29T18:58:50.561Z,83.00
2022-12-29T19:01:25.515Z,83.30
2022-12-29T19:03:53.170Z,82.90
2022-12-29T19:06:23.698Z,82.80
2022-12-29T19:08:51.020Z,82.70
2022-12-29T19:11:18.522Z,82.60
2022-12-29T19:13:45.851Z,83.10
2022-12-29T19:16:18.688Z,83.10
2022-12-29T19:18:53.340Z,83.60
2022-12-29T19:21:31.388Z,84.60
2022-12-29T19:23:58.736Z,84.70
2022-12-29T19:26:30.846Z,83.30
2022-12-29T19:28:58.329Z,83.00
2022-12-29T19:31:25.817Z,82.90
2022-12-29T19:33:53.504Z,82.30
2022-12-29T19:36:22.543Z,81.60
2022-12-29T19:38:49.972Z,81.70
2022-12-29T19:41:17.347Z,82.20
2022-12-29T19:43:44.660Z,82.80
2022-12-29T19:46:16.839Z,83.00
2022-12-29T19:48:44.490Z,83.60
2022-12-29T19:51:15.521Z,84.10
2022-12-29T19:53:43.375Z,84.10
2022-12-29T19:56:11.038Z,84.30
2022-12-29T19:58:42.629Z,83.70
2022-12-29T20:01:15.070Z,84.10
2022-12-29T20:03:42.514Z,84.40
2022-12-29T20:06:10.313Z,84.70
2022-12-29T20:08:38.017Z,84.60
2022-12-29T20:11:13.612Z,88.10
2022-12-29T20:13:41.400Z,89.70
2022-12-29T20:16:11.641Z,91.50
2022-12-29T20:18:39.055Z,92.10
2022-12-29T20:21:08.209Z,93.90
2022-12-29T20:23:36.916Z,94.20
2022-12-29T20:26:04.315Z,95.10
2022-12-29T20:28:31.714Z,95.80
2022-12-29T20:31:14.245Z,97.10
2022-12-29T20:33:41.687Z,98.00
2022-12-29T20:36:11.513Z,98.90
2022-12-29T20:38:38.827Z,99.60
2022-12-29T20:41:06.335Z,99.90
2022-12-29T20:43:33.875Z,99.90
2022-12-29T20:46:01.322Z,99.90
2022-12-29T20:48:29.637Z,99.90
2022-12-29T20:51:00.521Z,99.90
2022-12-29T20:53:28.306Z,99.90
2022-12-29T20:55:59.644Z,99.90
2022-12-29T20:58:26.978Z,99.90
2022-12-29T21:00:54.908Z,99.90
2022-12-29T21:03:22.705Z,99.90
2022-12-29T21:05:51.778Z,99.90
2022-12-29T21:08:21.050Z,99.90
2022-12-29T21:10:48.784Z,99.90
2022-12-29T21:13:16.599Z,99.90
2022-12-29T21:15:44.866Z,99.90
2022-12-29T21:18:13.653Z,99.90
2022-12-29T21:20:41.243Z,99.90
2022-12-29T21:23:09.566Z,99.90
2022-12-29T21:25:37.327Z,99.90
2022-12-29T21:28:05.670Z,99.90
2022-12-29T21:30:33.790Z,99.90
2022-12-29T21:33:01.208Z,99.90
2022-12-29T21:35:28.666Z,99.90
2022-12-29T21:37:56.065Z,99.90
2022-12-29T21:40:23.410Z,99.90
2022-12-29T21:42:50.820Z,99.90
2022-12-29T21:45:27.588Z,99.90
2022-12-29T21:48:16.185Z,99.90
2022-12-29T21:51:03.833Z,99.90
2022-12-29T21:53:38.736Z,99.90
2022-12-29T21:56:06.253Z,99.90
2022-12-29T21:58:51.898Z,99.90
2022-12-29T22:01:38.204Z,99.90
2022-12-29T22:04:24.089Z,99.90
2022-12-29T22:07:09.943Z,99.90
2022-12-29T22:09:55.819Z,99.90
2022-12-29T22:12:41.568Z,99.90
2022-12-29T22:15:09.208Z,99.90
2022-12-29T22:17:37.743Z,99.90
2022-12-29T22:20:06.650Z,99.90
2022-12-29T22:22:33.980Z,99.90
2022-12-29T22:25:02.708Z,99.90
2022-12-29T22:27:30.126Z,99.90
2022-12-29T22:29:57.449Z,99.90
2022-12-29T22:32:24.807Z,99.90
2022-12-29T22:34:52.167Z,99.90
2022-12-29T22:37:19.506Z,99.90
2022-12-29T22:39:46.804Z,99.90
2022-12-29T22:42:14.151Z,99.90
2022-12-29T22:44:41.502Z,99.90
2022-12-29T22:47:08.852Z,99.90
2022-12-29T22:49:36.208Z,99.90
2022-12-29T22:52:04.007Z,99.90
2022-12-29T22:54:31.363Z,99.90
2022-12-29T22:56:58.668Z,99.90
2022-12-29T22:59:26.002Z,99.90
2022-12-29T23:01:53.416Z,99.90
2022-12-29T23:05:02.382Z,99.90
2022-12-29T23:07:08.065Z,99.90
2022-12-29T23:09:35.343Z,99.90
2022-12-29T23:12:02.649Z,99.90
2022-12-29T23:14:30.015Z,99.90
2022-12-29T23:16:57.369Z,99.90
2022-12-29T23:19:24.766Z,99.90
2022-12-29T23:21:52.107Z,99.90
2022-12-29T23:24:19.463Z,99.90
2022-12-29T23:26:48.078Z,99.90
2022-12-29T23:29:17.352Z,99.90
2022-12-29T23:31:45.082Z,99.90
2022-12-29T23:34:13.015Z,99.90
2022-12-29T23:36:40.612Z,99.90
2022-12-29T23:39:10.792Z,99.90
2022-12-29T23:41:38.193Z,99.90
2022-12-29T23:44:05.583Z,99.90
2022-12-29T23:46:32.988Z,99.90
2022-12-29T23:49:00.341Z,99.90
2022-12-29T23:51:27.826Z,99.90
2022-12-29T23:53:55.208Z,99.90
2022-12-29T23:56:23.188Z,99.90
2022-12-29T23:58:50.940Z,99.90
